sensor_id;sensor_type;location;lat;lon;timestamp;P1;durP1;ratioP1;P2;durP2;ratioP2
28627;SDS011;15815;46.760;19.604;2023-06-10T00:00:42;19.67;;;8.95;;
28627;SDS011;15815;46.760;19.604;2023-06-10T00:03:08;15.93;;;8.85;;
28627;SDS011;15815;46.760;19.604;2023-06-10T00:05:34;11.98;;;9.45;;
28627;SDS011;15815;46.760;19.604;2023-06-10T00:08:00;14.65;;;9.75;;
28627;SDS011;15815;46.760;19.604;2023-06-10T00:10:26;14.95;;;9.82;;
28627;SDS011;15815;46.760;19.604;2023-06-10T00:12:51;11.77;;;8.82;;
28627;SDS011;15815;46.760;19.604;2023-06-10T00:15:17;12.80;;;9.27;;
28627;SDS011;15815;46.760;19.604;2023-06-10T00:17:43;20.40;;;10.65;;
28627;SDS011;15815;46.760;19.604;2023-06-10T00:20:10;22.02;;;10.15;;
28627;SDS011;15815;46.760;19.604;2023-06-10T00:22:36;17.40;;;10.52;;
28627;SDS011;15815;46.760;19.604;2023-06-10T00:25:03;17.65;;;10.10;;
28627;SDS011;15815;46.760;19.604;2023-06-10T00:27:31;18.40;;;10.02;;
28627;SDS011;15815;46.760;19.604;2023-06-10T00:29:59;19.90;;;9.38;;
28627;SDS011;15815;46.760;19.604;2023-06-10T00:32:24;20.23;;;10.23;;
28627;SDS011;15815;46.760;19.604;2023-06-10T00:34:50;16.17;;;9.30;;
28627;SDS011;15815;46.760;19.604;2023-06-10T00:37:17;16.02;;;10.32;;
28627;SDS011;15815;46.760;19.604;2023-06-10T00:39:43;17.27;;;10.07;;
28627;SDS011;15815;46.760;19.604;2023-06-10T00:42:10;17.75;;;9.00;;
28627;SDS011;15815;46.760;19.604;2023-06-10T00:44:36;13.70;;;9.52;;
28627;SDS011;15815;46.760;19.604;2023-06-10T00:47:01;13.88;;;8.32;;
28627;SDS011;15815;46.760;19.604;2023-06-10T00:49:28;18.80;;;9.43;;
28627;SDS011;15815;46.760;19.604;2023-06-10T00:51:54;14.25;;;8.73;;
28627;SDS011;15815;46.760;19.604;2023-06-10T00:54:23;16.65;;;8.93;;
28627;SDS011;15815;46.760;19.604;2023-06-10T00:56:50;15.55;;;8.48;;
28627;SDS011;15815;46.760;19.604;2023-06-10T00:59:16;12.52;;;8.43;;
28627;SDS011;15815;46.760;19.604;2023-06-10T01:01:42;16.30;;;8.43;;
28627;SDS011;15815;46.760;19.604;2023-06-10T01:04:10;18.27;;;8.43;;
28627;SDS011;15815;46.760;19.604;2023-06-10T01:06:41;14.57;;;8.55;;
28627;SDS011;15815;46.760;19.604;2023-06-10T01:11:59;8.90;;;7.65;;
28627;SDS011;15815;46.760;19.604;2023-06-10T01:14:41;11.05;;;7.10;;
28627;SDS011;15815;46.760;19.604;2023-06-10T01:17:07;7.55;;;6.13;;
28627;SDS011;15815;46.760;19.604;2023-06-10T01:19:35;9.25;;;6.28;;
28627;SDS011;15815;46.760;19.604;2023-06-10T01:22:02;8.25;;;5.82;;
28627;SDS011;15815;46.760;19.604;2023-06-10T01:24:31;9.07;;;6.07;;
28627;SDS011;15815;46.760;19.604;2023-06-10T01:26:59;9.93;;;6.38;;
28627;SDS011;15815;46.760;19.604;2023-06-10T01:29:33;12.10;;;6.07;;
28627;SDS011;15815;46.760;19.604;2023-06-10T01:32:06;7.35;;;6.40;;
28627;SDS011;15815;46.760;19.604;2023-06-10T01:34:37;7.65;;;6.47;;
28627;SDS011;15815;46.760;19.604;2023-06-10T01:37:07;13.25;;;7.05;;
28627;SDS011;15815;46.760;19.604;2023-06-10T01:39:38;15.05;;;7.70;;
28627;SDS011;15815;46.760;19.604;2023-06-10T01:42:05;11.32;;;7.20;;
28627;SDS011;15815;46.760;19.604;2023-06-10T01:44:31;9.60;;;8.10;;
28627;SDS011;15815;46.760;19.604;2023-06-10T01:46:57;10.57;;;8.15;;
28627;SDS011;15815;46.760;19.604;2023-06-10T01:49:23;15.18;;;8.68;;
28627;SDS011;15815;46.760;19.604;2023-06-10T01:51:49;10.57;;;7.18;;
28627;SDS011;15815;46.760;19.604;2023-06-10T01:54:15;11.65;;;6.90;;
28627;SDS011;15815;46.760;19.604;2023-06-10T01:56:40;10.10;;;6.97;;
28627;SDS011;15815;46.760;19.604;2023-06-10T01:59:06;15.18;;;6.68;;
28627;SDS011;15815;46.760;19.604;2023-06-10T02:01:33;23.25;;;7.35;;
28627;SDS011;15815;46.760;19.604;2023-06-10T02:03:59;16.75;;;8.23;;
28627;SDS011;15815;46.760;19.604;2023-06-10T02:06:25;12.77;;;7.45;;
28627;SDS011;15815;46.760;19.604;2023-06-10T02:08:51;12.20;;;7.75;;
28627;SDS011;15815;46.760;19.604;2023-06-10T02:11:17;18.42;;;8.32;;
28627;SDS011;15815;46.760;19.604;2023-06-10T02:13:44;12.15;;;7.57;;
28627;SDS011;15815;46.760;19.604;2023-06-10T02:16:09;15.05;;;7.30;;
28627;SDS011;15815;46.760;19.604;2023-06-10T02:18:35;11.57;;;6.82;;
28627;SDS011;15815;46.760;19.604;2023-06-10T02:21:01;12.60;;;8.15;;
28627;SDS011;15815;46.760;19.604;2023-06-10T02:23:27;10.38;;;7.32;;
28627;SDS011;15815;46.760;19.604;2023-06-10T02:25:52;14.30;;;7.47;;
28627;SDS011;15815;46.760;19.604;2023-06-10T02:28:18;9.98;;;7.20;;
28627;SDS011;15815;46.760;19.604;2023-06-10T02:30:44;8.75;;;6.65;;
28627;SDS011;15815;46.760;19.604;2023-06-10T02:33:10;14.68;;;7.90;;
28627;SDS011;15815;46.760;19.604;2023-06-10T02:35:36;11.32;;;7.68;;
28627;SDS011;15815;46.760;19.604;2023-06-10T02:38:04;7.78;;;7.07;;
28627;SDS011;15815;46.760;19.604;2023-06-10T02:40:30;11.30;;;7.07;;
28627;SDS011;15815;46.760;19.604;2023-06-10T02:42:56;11.40;;;7.50;;
28627;SDS011;15815;46.760;19.604;2023-06-10T02:45:22;11.02;;;7.85;;
28627;SDS011;15815;46.760;19.604;2023-06-10T02:47:48;21.20;;;7.60;;
28627;SDS011;15815;46.760;19.604;2023-06-10T02:50:13;18.73;;;9.07;;
28627;SDS011;15815;46.760;19.604;2023-06-10T02:52:40;31.50;;;9.68;;
28627;SDS011;15815;46.760;19.604;2023-06-10T02:55:05;14.48;;;9.55;;
28627;SDS011;15815;46.760;19.604;2023-06-10T02:57:31;20.80;;;8.82;;
28627;SDS011;15815;46.760;19.604;2023-06-10T02:59:58;19.02;;;10.10;;
28627;SDS011;15815;46.760;19.604;2023-06-10T03:02:23;13.68;;;10.52;;
28627;SDS011;15815;46.760;19.604;2023-06-10T03:04:50;13.25;;;9.05;;
28627;SDS011;15815;46.760;19.604;2023-06-10T03:07:16;12.43;;;9.57;;
28627;SDS011;15815;46.760;19.604;2023-06-10T03:09:41;17.50;;;10.02;;
28627;SDS011;15815;46.760;19.604;2023-06-10T03:12:07;15.65;;;9.68;;
28627;SDS011;15815;46.760;19.604;2023-06-10T03:14:34;16.10;;;9.98;;
28627;SDS011;15815;46.760;19.604;2023-06-10T03:17:02;14.65;;;9.85;;
28627;SDS011;15815;46.760;19.604;2023-06-10T03:19:27;12.32;;;10.50;;
28627;SDS011;15815;46.760;19.604;2023-06-10T03:22:09;12.75;;;10.45;;
28627;SDS011;15815;46.760;19.604;2023-06-10T03:24:38;11.35;;;10.25;;
28627;SDS011;15815;46.760;19.604;2023-06-10T03:27:06;17.00;;;10.00;;
28627;SDS011;15815;46.760;19.604;2023-06-10T03:29:32;12.90;;;10.18;;
28627;SDS011;15815;46.760;19.604;2023-06-10T03:31:58;14.95;;;10.88;;
28627;SDS011;15815;46.760;19.604;2023-06-10T03:34:24;15.27;;;11.25;;
28627;SDS011;15815;46.760;19.604;2023-06-10T03:36:50;17.33;;;11.50;;
28627;SDS011;15815;46.760;19.604;2023-06-10T03:39:15;23.13;;;12.63;;
28627;SDS011;15815;46.760;19.604;2023-06-10T03:41:45;17.65;;;11.90;;
28627;SDS011;15815;46.760;19.604;2023-06-10T03:44:11;17.63;;;11.93;;
28627;SDS011;15815;46.760;19.604;2023-06-10T03:46:37;21.13;;;12.55;;
28627;SDS011;15815;46.760;19.604;2023-06-10T03:49:03;28.23;;;12.70;;
28627;SDS011;15815;46.760;19.604;2023-06-10T03:51:29;22.73;;;13.40;;
28627;SDS011;15815;46.760;19.604;2023-06-10T03:53:55;21.85;;;14.32;;
28627;SDS011;15815;46.760;19.604;2023-06-10T03:56:21;18.73;;;12.52;;
28627;SDS011;15815;46.760;19.604;2023-06-10T03:58:47;26.02;;;12.82;;
28627;SDS011;15815;46.760;19.604;2023-06-10T04:01:12;20.65;;;11.70;;
28627;SDS011;15815;46.760;19.604;2023-06-10T04:03:38;21.88;;;12.57;;
28627;SDS011;15815;46.760;19.604;2023-06-10T04:06:04;20.42;;;11.88;;
28627;SDS011;15815;46.760;19.604;2023-06-10T04:08:30;20.75;;;11.98;;
28627;SDS011;15815;46.760;19.604;2023-06-10T04:10:56;16.08;;;11.60;;
28627;SDS011;15815;46.760;19.604;2023-06-10T04:13:23;19.05;;;11.63;;
28627;SDS011;15815;46.760;19.604;2023-06-10T04:15:48;19.50;;;11.38;;
28627;SDS011;15815;46.760;19.604;2023-06-10T04:18:14;22.45;;;12.77;;
28627;SDS011;15815;46.760;19.604;2023-06-10T04:20:41;22.38;;;12.40;;
28627;SDS011;15815;46.760;19.604;2023-06-10T04:23:07;20.65;;;13.50;;
28627;SDS011;15815;46.760;19.604;2023-06-10T04:25:33;19.20;;;12.75;;
28627;SDS011;15815;46.760;19.604;2023-06-10T04:28:05;25.83;;;11.40;;
28627;SDS011;15815;46.760;19.604;2023-06-10T04:30:31;23.00;;;10.82;;
28627;SDS011;15815;46.760;19.604;2023-06-10T04:33:00;15.80;;;10.73;;
28627;SDS011;15815;46.760;19.604;2023-06-10T04:35:46;13.40;;;9.77;;
28627;SDS011;15815;46.760;19.604;2023-06-10T04:38:11;21.63;;;9.82;;
28627;SDS011;15815;46.760;19.604;2023-06-10T04:40:40;14.32;;;9.57;;
28627;SDS011;15815;46.760;19.604;2023-06-10T04:43:06;11.02;;;8.18;;
28627;SDS011;15815;46.760;19.604;2023-06-10T04:45:32;12.27;;;7.72;;
28627;SDS011;15815;46.760;19.604;2023-06-10T04:47:57;14.57;;;8.80;;
28627;SDS011;15815;46.760;19.604;2023-06-10T04:50:24;10.30;;;7.88;;
28627;SDS011;15815;46.760;19.604;2023-06-10T04:52:50;12.27;;;8.05;;
28627;SDS011;15815;46.760;19.604;2023-06-10T04:55:16;13.57;;;8.70;;
28627;SDS011;15815;46.760;19.604;2023-06-10T04:57:42;9.93;;;7.90;;
28627;SDS011;15815;46.760;19.604;2023-06-10T05:00:09;17.70;;;8.13;;
28627;SDS011;15815;46.760;19.604;2023-06-10T05:02:35;9.93;;;8.43;;
28627;SDS011;15815;46.760;19.604;2023-06-10T05:05:02;10.13;;;8.60;;
28627;SDS011;15815;46.760;19.604;2023-06-10T05:07:28;9.27;;;7.53;;
28627;SDS011;15815;46.760;19.604;2023-06-10T05:09:53;9.93;;;7.43;;
28627;SDS011;15815;46.760;19.604;2023-06-10T05:12:19;11.75;;;8.55;;
28627;SDS011;15815;46.760;19.604;2023-06-10T05:14:45;10.80;;;8.68;;
28627;SDS011;15815;46.760;19.604;2023-06-10T05:17:10;13.30;;;8.40;;
28627;SDS011;15815;46.760;19.604;2023-06-10T05:19:36;12.15;;;8.55;;
28627;SDS011;15815;46.760;19.604;2023-06-10T05:22:03;12.23;;;9.20;;
28627;SDS011;15815;46.760;19.604;2023-06-10T05:24:29;16.88;;;9.57;;
28627;SDS011;15815;46.760;19.604;2023-06-10T05:26:54;10.95;;;9.25;;
28627;SDS011;15815;46.760;19.604;2023-06-10T05:29:20;11.60;;;9.40;;
28627;SDS011;15815;46.760;19.604;2023-06-10T05:31:47;12.05;;;10.70;;
28627;SDS011;15815;46.760;19.604;2023-06-10T05:34:16;15.55;;;9.18;;
28627;SDS011;15815;46.760;19.604;2023-06-10T05:36:44;9.85;;;8.27;;
28627;SDS011;15815;46.760;19.604;2023-06-10T05:39:09;9.02;;;7.82;;
28627;SDS011;15815;46.760;19.604;2023-06-10T05:41:35;10.88;;;7.85;;
28627;SDS011;15815;46.760;19.604;2023-06-10T05:44:01;12.43;;;7.88;;
28627;SDS011;15815;46.760;19.604;2023-06-10T05:46:28;8.82;;;7.40;;
28627;SDS011;15815;46.760;19.604;2023-06-10T05:48:54;12.25;;;7.22;;
28627;SDS011;15815;46.760;19.604;2023-06-10T05:51:23;9.40;;;6.35;;
28627;SDS011;15815;46.760;19.604;2023-06-10T05:53:54;9.25;;;7.03;;
28627;SDS011;15815;46.760;19.604;2023-06-10T05:56:20;7.63;;;6.15;;
28627;SDS011;15815;46.760;19.604;2023-06-10T05:58:46;7.82;;;6.07;;
28627;SDS011;15815;46.760;19.604;2023-06-10T06:01:11;9.32;;;6.53;;
28627;SDS011;15815;46.760;19.604;2023-06-10T06:03:37;7.22;;;6.18;;
28627;SDS011;15815;46.760;19.604;2023-06-10T06:06:03;13.15;;;6.47;;
28627;SDS011;15815;46.760;19.604;2023-06-10T06:08:29;10.73;;;6.90;;
28627;SDS011;15815;46.760;19.604;2023-06-10T06:11:01;7.05;;;6.35;;
28627;SDS011;15815;46.760;19.604;2023-06-10T06:13:37;8.43;;;5.78;;
28627;SDS011;15815;46.760;19.604;2023-06-10T06:16:03;5.60;;;4.85;;
28627;SDS011;15815;46.760;19.604;2023-06-10T06:18:29;6.22;;;4.88;;
28627;SDS011;15815;46.760;19.604;2023-06-10T06:20:57;7.68;;;5.72;;
28627;SDS011;15815;46.760;19.604;2023-06-10T06:23:23;6.78;;;5.63;;
28627;SDS011;15815;46.760;19.604;2023-06-10T06:25:50;7.50;;;5.13;;
28627;SDS011;15815;46.760;19.604;2023-06-10T06:31:10;6.32;;;5.35;;
28627;SDS011;15815;46.760;19.604;2023-06-10T06:42:01;5.50;;;4.50;;
28627;SDS011;15815;46.760;19.604;2023-06-10T06:44:40;4.63;;;4.22;;
28627;SDS011;15815;46.760;19.604;2023-06-10T06:49:41;4.28;;;3.88;;
28627;SDS011;15815;46.760;19.604;2023-06-10T06:57:16;9.02;;;4.40;;
28627;SDS011;15815;46.760;19.604;2023-06-10T06:59:59;8.10;;;4.78;;
28627;SDS011;15815;46.760;19.604;2023-06-10T07:03:09;5.28;;;4.78;;
28627;SDS011;15815;46.760;19.604;2023-06-10T07:05:36;6.88;;;4.47;;
28627;SDS011;15815;46.760;19.604;2023-06-10T07:08:18;6.13;;;4.20;;
28627;SDS011;15815;46.760;19.604;2023-06-10T07:13:14;5.80;;;5.20;;
28627;SDS011;15815;46.760;19.604;2023-06-10T07:18:58;6.57;;;4.45;;
28627;SDS011;15815;46.760;19.604;2023-06-10T07:21:30;6.22;;;4.35;;
28627;SDS011;15815;46.760;19.604;2023-06-10T07:23:56;5.32;;;4.80;;
28627;SDS011;15815;46.760;19.604;2023-06-10T07:26:48;5.20;;;4.72;;
28627;SDS011;15815;46.760;19.604;2023-06-10T07:29:17;5.93;;;4.50;;
28627;SDS011;15815;46.760;19.604;2023-06-10T07:31:50;5.90;;;4.15;;
28627;SDS011;15815;46.760;19.604;2023-06-10T07:34:26;4.95;;;4.50;;
28627;SDS011;15815;46.760;19.604;2023-06-10T07:36:59;5.10;;;4.55;;
28627;SDS011;15815;46.760;19.604;2023-06-10T07:39:25;4.75;;;4.30;;
28627;SDS011;15815;46.760;19.604;2023-06-10T07:41:50;4.40;;;3.75;;
28627;SDS011;15815;46.760;19.604;2023-06-10T07:44:25;5.63;;;4.05;;
28627;SDS011;15815;46.760;19.604;2023-06-10T07:46:54;5.22;;;3.50;;
28627;SDS011;15815;46.760;19.604;2023-06-10T07:49:20;5.13;;;4.05;;
28627;SDS011;15815;46.760;19.604;2023-06-10T07:51:46;4.55;;;4.15;;
28627;SDS011;15815;46.760;19.604;2023-06-10T07:54:12;15.77;;;4.43;;
28627;SDS011;15815;46.760;19.604;2023-06-10T07:56:38;4.93;;;4.00;;
28627;SDS011;15815;46.760;19.604;2023-06-10T07:59:04;5.00;;;4.50;;
28627;SDS011;15815;46.760;19.604;2023-06-10T08:01:30;4.72;;;4.05;;
28627;SDS011;15815;46.760;19.604;2023-06-10T08:03:59;4.32;;;3.92;;
28627;SDS011;15815;46.760;19.604;2023-06-10T08:07:05;80.15;;;7.32;;
28627;SDS011;15815;46.760;19.604;2023-06-10T08:09:33;60.30;;;12.48;;
28627;SDS011;15815;46.760;19.604;2023-06-10T08:11:59;22.80;;;9.88;;
28627;SDS011;15815;46.760;19.604;2023-06-10T08:14:27;26.52;;;10.57;;
28627;SDS011;15815;46.760;19.604;2023-06-10T08:16:55;27.05;;;8.85;;
28627;SDS011;15815;46.760;19.604;2023-06-10T08:19:21;13.85;;;9.63;;
28627;SDS011;15815;46.760;19.604;2023-06-10T08:21:47;13.18;;;8.27;;
28627;SDS011;15815;46.760;19.604;2023-06-10T08:24:13;17.42;;;10.63;;
28627;SDS011;15815;46.760;19.604;2023-06-10T08:26:39;12.95;;;8.40;;
28627;SDS011;15815;46.760;19.604;2023-06-10T08:29:05;9.82;;;7.10;;
28627;SDS011;15815;46.760;19.604;2023-06-10T08:31:30;10.45;;;6.85;;
28627;SDS011;15815;46.760;19.604;2023-06-10T08:33:57;8.00;;;7.07;;
28627;SDS011;15815;46.760;19.604;2023-06-10T08:36:22;10.73;;;7.47;;
28627;SDS011;15815;46.760;19.604;2023-06-10T08:38:48;8.43;;;7.07;;
28627;SDS011;15815;46.760;19.604;2023-06-10T08:41:14;12.55;;;7.68;;
28627;SDS011;15815;46.760;19.604;2023-06-10T08:46:32;8.07;;;7.35;;
28627;SDS011;15815;46.760;19.604;2023-06-10T08:49:00;8.25;;;7.45;;
28627;SDS011;15815;46.760;19.604;2023-06-10T08:51:31;9.25;;;7.03;;
28627;SDS011;15815;46.760;19.604;2023-06-10T08:54:01;8.48;;;6.90;;
28627;SDS011;15815;46.760;19.604;2023-06-10T08:56:31;27.13;;;8.65;;
28627;SDS011;15815;46.760;19.604;2023-06-10T08:59:05;9.25;;;7.35;;
28627;SDS011;15815;46.760;19.604;2023-06-10T09:01:31;8.60;;;7.60;;
28627;SDS011;15815;46.760;19.604;2023-06-10T09:03:58;8.27;;;7.47;;
28627;SDS011;15815;46.760;19.604;2023-06-10T09:06:24;6.78;;;6.07;;
28627;SDS011;15815;46.760;19.604;2023-06-10T09:08:50;10.02;;;6.35;;
28627;SDS011;15815;46.760;19.604;2023-06-10T09:11:17;6.85;;;5.65;;
28627;SDS011;15815;46.760;19.604;2023-06-10T09:13:43;7.25;;;6.55;;
28627;SDS011;15815;46.760;19.604;2023-06-10T09:16:09;6.07;;;5.47;;
28627;SDS011;15815;46.760;19.604;2023-06-10T09:18:35;6.07;;;5.55;;
28627;SDS011;15815;46.760;19.604;2023-06-10T09:21:00;5.75;;;5.15;;
28627;SDS011;15815;46.760;19.604;2023-06-10T09:23:26;5.97;;;5.38;;
28627;SDS011;15815;46.760;19.604;2023-06-10T09:25:58;9.15;;;5.88;;
28627;SDS011;15815;46.760;19.604;2023-06-10T09:28:24;5.63;;;5.13;;
28627;SDS011;15815;46.760;19.604;2023-06-10T09:31:03;5.28;;;4.75;;
28627;SDS011;15815;46.760;19.604;2023-06-10T09:33:30;4.57;;;4.18;;
28627;SDS011;15815;46.760;19.604;2023-06-10T09:38:37;4.82;;;4.43;;
28627;SDS011;15815;46.760;19.604;2023-06-10T09:41:05;4.10;;;3.70;;
28627;SDS011;15815;46.760;19.604;2023-06-10T09:52:05;5.20;;;4.03;;
28627;SDS011;15815;46.760;19.604;2023-06-10T09:54:33;6.40;;;4.18;;
28627;SDS011;15815;46.760;19.604;2023-06-10T09:57:00;4.90;;;3.20;;
28627;SDS011;15815;46.760;19.604;2023-06-10T09:59:33;3.70;;;3.00;;
28627;SDS011;15815;46.760;19.604;2023-06-10T10:01:58;2.97;;;2.78;;
28627;SDS011;15815;46.760;19.604;2023-06-10T10:04:24;4.18;;;3.00;;
28627;SDS011;15815;46.760;19.604;2023-06-10T10:06:50;3.15;;;2.95;;
28627;SDS011;15815;46.760;19.604;2023-06-10T10:09:20;3.70;;;3.33;;
28627;SDS011;15815;46.760;19.604;2023-06-10T10:11:45;7.97;;;3.30;;
28627;SDS011;15815;46.760;19.604;2023-06-10T10:14:20;4.03;;;3.25;;
28627;SDS011;15815;46.760;19.604;2023-06-10T10:16:47;4.10;;;3.80;;
28627;SDS011;15815;46.760;19.604;2023-06-10T10:19:18;4.40;;;3.80;;
28627;SDS011;15815;46.760;19.604;2023-06-10T10:24:50;6.70;;;4.18;;
28627;SDS011;15815;46.760;19.604;2023-06-10T10:27:28;4.18;;;3.78;;
28627;SDS011;15815;46.760;19.604;2023-06-10T10:30:05;3.45;;;3.15;;
28627;SDS011;15815;46.760;19.604;2023-06-10T10:37:47;3.42;;;2.70;;
28627;SDS011;15815;46.760;19.604;2023-06-10T10:40:24;3.85;;;3.28;;
28627;SDS011;15815;46.760;19.604;2023-06-10T10:45:45;3.10;;;2.80;;
28627;SDS011;15815;46.760;19.604;2023-06-10T10:51:06;6.55;;;3.28;;
28627;SDS011;15815;46.760;19.604;2023-06-10T10:53:40;9.18;;;3.67;;
28627;SDS011;15815;46.760;19.604;2023-06-10T10:58:40;3.40;;;3.10;;
28627;SDS011;15815;46.760;19.604;2023-06-10T11:01:22;5.15;;;3.47;;
28627;SDS011;15815;46.760;19.604;2023-06-10T11:03:50;4.07;;;3.53;;
28627;SDS011;15815;46.760;19.604;2023-06-10T11:06:32;3.58;;;3.22;;
28627;SDS011;15815;46.760;19.604;2023-06-10T11:08:58;5.45;;;3.25;;
28627;SDS011;15815;46.760;19.604;2023-06-10T11:11:30;4.57;;;2.67;;
28627;SDS011;15815;46.760;19.604;2023-06-10T11:14:14;3.08;;;2.85;;
28627;SDS011;15815;46.760;19.604;2023-06-10T11:16:56;3.75;;;2.90;;
28627;SDS011;15815;46.760;19.604;2023-06-10T11:19:51;9.45;;;2.75;;
28627;SDS011;15815;46.760;19.604;2023-06-10T11:22:18;5.63;;;3.03;;
28627;SDS011;15815;46.760;19.604;2023-06-10T11:28:27;3.25;;;2.95;;
28627;SDS011;15815;46.760;19.604;2023-06-10T11:31:01;4.15;;;3.30;;
28627;SDS011;15815;46.760;19.604;2023-06-10T11:33:27;4.47;;;2.85;;
28627;SDS011;15815;46.760;19.604;2023-06-10T11:35:54;10.63;;;3.33;;
28627;SDS011;15815;46.760;19.604;2023-06-10T11:38:20;6.45;;;3.45;;
28627;SDS011;15815;46.760;19.604;2023-06-10T11:40:49;7.28;;;3.53;;
28627;SDS011;15815;46.760;19.604;2023-06-10T11:43:16;3.45;;;3.15;;
28627;SDS011;15815;46.760;19.604;2023-06-10T11:45:43;3.80;;;3.50;;
28627;SDS011;15815;46.760;19.604;2023-06-10T11:48:10;3.50;;;3.20;;
28627;SDS011;15815;46.760;19.604;2023-06-10T11:50:36;4.05;;;3.70;;
28627;SDS011;15815;46.760;19.604;2023-06-10T11:53:02;5.82;;;4.60;;
28627;SDS011;15815;46.760;19.604;2023-06-10T11:55:48;8.10;;;4.57;;
28627;SDS011;15815;46.760;19.604;2023-06-10T11:58:16;5.22;;;3.72;;
28627;SDS011;15815;46.760;19.604;2023-06-10T12:00:49;4.33;;;3.83;;
28627;SDS011;15815;46.760;19.604;2023-06-10T12:03:16;7.68;;;3.35;;
28627;SDS011;15815;46.760;19.604;2023-06-10T12:08:25;3.63;;;2.88;;
28627;SDS011;15815;46.760;19.604;2023-06-10T12:10:51;5.07;;;3.08;;
28627;SDS011;15815;46.760;19.604;2023-06-10T12:13:17;2.95;;;2.67;;
28627;SDS011;15815;46.760;19.604;2023-06-10T12:15:43;4.72;;;3.00;;
28627;SDS011;15815;46.760;19.604;2023-06-10T12:18:16;2.83;;;2.63;;
28627;SDS011;15815;46.760;19.604;2023-06-10T12:20:47;3.58;;;3.08;;
28627;SDS011;15815;46.760;19.604;2023-06-10T12:23:13;3.55;;;3.25;;
28627;SDS011;15815;46.760;19.604;2023-06-10T12:25:39;4.07;;;3.70;;
28627;SDS011;15815;46.760;19.604;2023-06-10T12:28:15;4.95;;;3.70;;
28627;SDS011;15815;46.760;19.604;2023-06-10T12:30:41;3.75;;;3.45;;
28627;SDS011;15815;46.760;19.604;2023-06-10T12:33:15;5.22;;;4.50;;
28627;SDS011;15815;46.760;19.604;2023-06-10T12:35:48;4.13;;;3.78;;
28627;SDS011;15815;46.760;19.604;2023-06-10T12:38:18;6.53;;;4.63;;
28627;SDS011;15815;46.760;19.604;2023-06-10T12:40:47;5.28;;;4.78;;
28627;SDS011;15815;46.760;19.604;2023-06-10T12:43:13;7.45;;;5.40;;
28627;SDS011;15815;46.760;19.604;2023-06-10T12:45:39;6.88;;;5.50;;
28627;SDS011;15815;46.760;19.604;2023-06-10T12:48:10;5.95;;;5.20;;
28627;SDS011;15815;46.760;19.604;2023-06-10T12:50:42;8.52;;;6.38;;
28627;SDS011;15815;46.760;19.604;2023-06-10T12:53:09;9.60;;;5.55;;
28627;SDS011;15815;46.760;19.604;2023-06-10T12:55:37;8.80;;;6.13;;
28627;SDS011;15815;46.760;19.604;2023-06-10T12:58:03;6.30;;;5.80;;
28627;SDS011;15815;46.760;19.604;2023-06-10T13:00:29;9.88;;;6.18;;
28627;SDS011;15815;46.760;19.604;2023-06-10T13:03:00;7.65;;;5.68;;
28627;SDS011;15815;46.760;19.604;2023-06-10T13:05:26;6.78;;;6.05;;
28627;SDS011;15815;46.760;19.604;2023-06-10T13:07:52;7.38;;;6.55;;
28627;SDS011;15815;46.760;19.604;2023-06-10T13:10:18;10.90;;;7.43;;
28627;SDS011;15815;46.760;19.604;2023-06-10T13:12:44;7.65;;;6.95;;
28627;SDS011;15815;46.760;19.604;2023-06-10T13:15:10;8.00;;;6.22;;
28627;SDS011;15815;46.760;19.604;2023-06-10T13:17:37;7.63;;;6.65;;
28627;SDS011;15815;46.760;19.604;2023-06-10T13:20:03;10.13;;;7.05;;
28627;SDS011;15815;46.760;19.604;2023-06-10T13:22:29;7.40;;;6.78;;
28627;SDS011;15815;46.760;19.604;2023-06-10T13:24:55;7.30;;;6.70;;
28627;SDS011;15815;46.760;19.604;2023-06-10T13:27:21;7.90;;;7.07;;
28627;SDS011;15815;46.760;19.604;2023-06-10T13:29:47;7.82;;;7.13;;
28627;SDS011;15815;46.760;19.604;2023-06-10T13:32:12;7.97;;;7.28;;
28627;SDS011;15815;46.760;19.604;2023-06-10T13:34:38;7.75;;;7.05;;
28627;SDS011;15815;46.760;19.604;2023-06-10T13:37:04;7.50;;;6.80;;
28627;SDS011;15815;46.760;19.604;2023-06-10T13:39:29;8.10;;;7.35;;
28627;SDS011;15815;46.760;19.604;2023-06-10T13:41:55;8.52;;;7.72;;
28627;SDS011;15815;46.760;19.604;2023-06-10T13:44:21;10.25;;;8.07;;
28627;SDS011;15815;46.760;19.604;2023-06-10T13:46:47;7.75;;;7.05;;
28627;SDS011;15815;46.760;19.604;2023-06-10T13:49:13;7.38;;;6.68;;
28627;SDS011;15815;46.760;19.604;2023-06-10T13:51:39;7.65;;;7.00;;
28627;SDS011;15815;46.760;19.604;2023-06-10T13:54:05;8.63;;;6.25;;
28627;SDS011;15815;46.760;19.604;2023-06-10T13:56:31;7.53;;;6.82;;
28627;SDS011;15815;46.760;19.604;2023-06-10T13:58:56;9.88;;;7.75;;
28627;SDS011;15815;46.760;19.604;2023-06-10T14:01:22;7.43;;;6.80;;
28627;SDS011;15815;46.760;19.604;2023-06-10T14:03:49;7.28;;;5.68;;
28627;SDS011;15815;46.760;19.604;2023-06-10T14:06:14;7.20;;;6.50;;
28627;SDS011;15815;46.760;19.604;2023-06-10T14:08:40;7.90;;;7.20;;
28627;SDS011;15815;46.760;19.604;2023-06-10T14:11:06;8.98;;;7.63;;
28627;SDS011;15815;46.760;19.604;2023-06-10T14:13:31;7.97;;;7.28;;
28627;SDS011;15815;46.760;19.604;2023-06-10T14:15:57;8.18;;;7.35;;
28627;SDS011;15815;46.760;19.604;2023-06-10T14:18:23;7.85;;;6.78;;
28627;SDS011;15815;46.760;19.604;2023-06-10T14:20:49;8.00;;;6.47;;
28627;SDS011;15815;46.760;19.604;2023-06-10T14:23:15;9.95;;;5.90;;
28627;SDS011;15815;46.760;19.604;2023-06-10T14:25:40;7.07;;;6.22;;
28627;SDS011;15815;46.760;19.604;2023-06-10T14:28:06;7.05;;;5.90;;
28627;SDS011;15815;46.760;19.604;2023-06-10T14:30:32;6.45;;;5.95;;
28627;SDS011;15815;46.760;19.604;2023-06-10T14:32:58;6.43;;;5.82;;
28627;SDS011;15815;46.760;19.604;2023-06-10T14:35:23;7.07;;;5.35;;
28627;SDS011;15815;46.760;19.604;2023-06-10T14:37:49;6.15;;;5.35;;
28627;SDS011;15815;46.760;19.604;2023-06-10T14:40:15;9.10;;;6.00;;
28627;SDS011;15815;46.760;19.604;2023-06-10T14:42:40;7.75;;;5.25;;
28627;SDS011;15815;46.760;19.604;2023-06-10T14:45:07;6.20;;;5.43;;
28627;SDS011;15815;46.760;19.604;2023-06-10T14:47:33;6.22;;;5.43;;
28627;SDS011;15815;46.760;19.604;2023-06-10T14:49:59;5.93;;;5.28;;
28627;SDS011;15815;46.760;19.604;2023-06-10T14:52:24;8.10;;;5.60;;
28627;SDS011;15815;46.760;19.604;2023-06-10T14:54:50;7.72;;;4.97;;
28627;SDS011;15815;46.760;19.604;2023-06-10T14:57:16;4.70;;;4.30;;
28627;SDS011;15815;46.760;19.604;2023-06-10T14:59:42;5.80;;;5.20;;
28627;SDS011;15815;46.760;19.604;2023-06-10T15:02:08;6.18;;;5.57;;
28627;SDS011;15815;46.760;19.604;2023-06-10T15:04:35;5.90;;;5.30;;
28627;SDS011;15815;46.760;19.604;2023-06-10T15:07:00;6.32;;;5.82;;
28627;SDS011;15815;46.760;19.604;2023-06-10T15:09:26;5.68;;;5.07;;
28627;SDS011;15815;46.760;19.604;2023-06-10T15:11:55;8.02;;;5.55;;
28627;SDS011;15815;46.760;19.604;2023-06-10T15:14:21;8.27;;;5.15;;
28627;SDS011;15815;46.760;19.604;2023-06-10T15:16:46;51.40;;;7.15;;
28627;SDS011;15815;46.760;19.604;2023-06-10T15:19:12;61.17;;;7.00;;
28627;SDS011;15815;46.760;19.604;2023-06-10T15:21:38;13.25;;;5.15;;
28627;SDS011;15815;46.760;19.604;2023-06-10T15:24:04;5.70;;;4.65;;
28627;SDS011;15815;46.760;19.604;2023-06-10T15:26:29;4.65;;;4.25;;
28627;SDS011;15815;46.760;19.604;2023-06-10T15:28:55;5.25;;;4.75;;
28627;SDS011;15815;46.760;19.604;2023-06-10T15:31:21;6.82;;;5.38;;
28627;SDS011;15815;46.760;19.604;2023-06-10T15:33:48;5.32;;;4.80;;
28627;SDS011;15815;46.760;19.604;2023-06-10T15:36:14;7.38;;;4.88;;